createdAt,value
2019-04-01T00:00:26.041Z,5.40
2019-04-01T00:02:56.682Z,5.40
2019-04-01T00:05:27.380Z,5.00
2019-04-01T00:07:58.175Z,4.70
2019-04-01T00:10:28.644Z,4.70
2019-04-01T00:12:59.079Z,4.60
2019-04-01T00:15:43.079Z,4.70
2019-04-01T00:18:13.615Z,4.90
2019-04-01T00:20:56.797Z,4.80
2019-04-01T00:23:26.994Z,4.80
2019-04-01T00:25:57.251Z,4.80
2019-04-01T00:28:27.498Z,4.60
2019-04-01T00:31:12.370Z,4.60
2019-04-01T00:33:42.711Z,4.40
2019-04-01T00:36:13.230Z,4.40
2019-04-01T00:38:43.646Z,4.40
2019-04-01T00:41:14.007Z,4.50
2019-04-01T00:43:55.942Z,4.30
2019-04-01T00:46:27.086Z,4.30
2019-04-01T00:48:57.545Z,4.30
2019-04-01T00:51:28.138Z,4.10
2019-04-01T00:53:58.931Z,4.20
2019-04-01T00:56:29.403Z,4.30
2019-04-01T00:58:59.640Z,4.30
2019-04-01T01:01:29.913Z,4.20
2019-04-01T01:04:00.649Z,4.10
2019-04-01T01:06:31.209Z,4.30
2019-04-01T01:09:01.476Z,4.10
2019-04-01T01:11:32.999Z,4.00
2019-04-01T01:14:03.468Z,4.10
2019-04-01T01:16:34.140Z,4.00
2019-04-01T01:19:04.502Z,3.80
2019-04-01T01:21:35.031Z,3.90
2019-04-01T01:24:05.226Z,3.80
2019-04-01T01:26:35.483Z,3.90
2019-04-01T01:29:05.949Z,3.90
2019-04-01T01:31:36.707Z,3.80
2019-04-01T01:34:07.072Z,3.70
2019-04-01T01:36:37.434Z,3.70
2019-04-01T01:39:07.779Z,3.70
2019-04-01T01:41:38.150Z,3.80
2019-04-01T01:44:08.862Z,3.80
2019-04-01T01:46:39.211Z,4.10
2019-04-01T01:49:09.847Z,4.10
2019-04-01T01:51:40.223Z,4.00
2019-04-01T01:54:10.391Z,3.90
2019-04-01T01:56:40.578Z,3.90
2019-04-01T01:59:10.813Z,3.60
2019-04-01T02:02:16.906Z,3.70
2019-04-01T02:04:47.242Z,3.90
2019-04-01T02:07:17.448Z,3.80
2019-04-01T02:09:47.858Z,3.70
2019-04-01T02:12:18.046Z,3.80
2019-04-01T02:14:50.413Z,3.90
2019-04-01T02:17:20.622Z,3.80
2019-04-01T02:19:51.226Z,3.90
2019-04-01T02:22:21.605Z,3.90
2019-04-01T02:24:52.050Z,3.80
2019-04-01T02:27:22.703Z,4.00
2019-04-01T02:29:52.867Z,3.80
2019-04-01T02:32:23.067Z,3.70
2019-04-01T02:34:53.260Z,3.60
2019-04-01T02:37:24.590Z,3.80
2019-04-01T02:39:56.472Z,3.80
2019-04-01T02:42:26.731Z,3.80
2019-04-01T02:44:57.178Z,3.70
2019-04-01T02:47:27.456Z,3.70
2019-04-01T02:49:57.695Z,3.50
2019-04-01T02:52:28.166Z,3.30
2019-04-01T02:54:58.405Z,3.40
2019-04-01T02:57:28.694Z,3.30
2019-04-01T02:59:59.189Z,3.60
2019-04-01T03:02:29.806Z,3.70
2019-04-01T03:05:00.516Z,3.70
2019-04-01T03:07:31.104Z,4.00
2019-04-01T03:10:01.818Z,4.00
2019-04-01T03:12:32.009Z,3.60
2019-04-01T03:15:02.580Z,3.40
2019-04-01T03:17:33.023Z,3.60
2019-04-01T03:20:04.524Z,3.50
2019-04-01T03:22:34.724Z,3.40
2019-04-01T03:25:06.059Z,3.40
2019-04-01T03:27:36.528Z,3.40
2019-04-01T03:30:06.966Z,3.30
2019-04-01T03:32:44.281Z,3.30
2019-04-01T03:35:09.339Z,3.20
2019-04-01T03:37:39.571Z,3.00
2019-04-01T03:40:09.773Z,3.00
2019-04-01T03:42:41.206Z,3.10
2019-04-01T03:45:11.444Z,3.10
2019-04-01T03:47:41.708Z,3.10
2019-04-01T03:50:12.000Z,3.00
2019-04-01T03:52:42.202Z,2.90
2019-04-01T03:55:12.605Z,3.20
2019-04-01T03:57:42.868Z,3.30
2019-04-01T04:00:13.169Z,3.20
2019-04-01T04:02:43.638Z,3.10
2019-04-01T04:05:13.870Z,3.10
2019-04-01T04:07:44.076Z,3.10
2019-04-01T04:10:14.323Z,3.10
2019-04-01T04:12:44.646Z,2.80
2019-04-01T04:15:15.283Z,2.80
2019-04-01T04:17:45.610Z,2.80
2019-04-01T04:20:15.876Z,2.80
2019-04-01T04:22:46.340Z,3.10
2019-04-01T04:25:16.879Z,3.10
2019-04-01T04:27:47.444Z,3.20
2019-04-01T04:30:20.539Z,3.30
2019-04-01T04:33:08.333Z,3.40
2019-04-01T04:35:38.670Z,3.40
2019-04-01T04:38:09.201Z,3.40
2019-04-01T04:40:41.136Z,3.40
2019-04-01T04:43:11.474Z,3.20
2019-04-01T04:45:41.906Z,3.20
2019-04-01T04:48:12.099Z,3.30
2019-04-01T04:50:42.447Z,3.30
2019-04-01T04:53:12.635Z,3.30
2019-04-01T04:55:42.801Z,3.40
2019-04-01T04:58:13.067Z,3.40
2019-04-01T05:00:43.309Z,3.40
2019-04-01T05:03:14.751Z,3.50
2019-04-01T05:05:44.981Z,3.60
2019-04-01T05:08:15.247Z,3.70
2019-04-01T05:10:45.678Z,3.70
2019-04-01T05:13:15.944Z,3.60
2019-04-01T05:15:46.184Z,3.70
2019-04-01T05:18:16.433Z,3.60
2019-04-01T05:20:47.026Z,3.60
2019-04-01T05:23:18.450Z,3.60
2019-04-01T05:25:48.889Z,3.60
2019-04-01T05:28:19.219Z,3.50
2019-04-01T05:30:49.658Z,3.40
2019-04-01T05:33:22.089Z,3.40
2019-04-01T05:35:52.469Z,3.40
2019-04-01T05:38:23.110Z,3.40
2019-04-01T05:40:53.557Z,3.60
2019-04-01T05:43:23.917Z,3.50
2019-04-01T05:45:54.319Z,3.50
2019-04-01T05:48:26.177Z,3.70
2019-04-01T05:50:56.350Z,3.80
2019-04-01T05:53:26.614Z,4.10
2019-04-01T05:55:56.915Z,4.20
2019-04-01T05:58:27.375Z,4.20
2019-04-01T06:00:59.186Z,4.50
2019-04-01T06:03:29.386Z,4.90
2019-04-01T06:05:59.558Z,5.20
2019-04-01T06:08:30.094Z,5.30
2019-04-01T06:11:00.283Z,6.00
2019-04-01T06:13:30.566Z,7.00
2019-04-01T06:16:00.976Z,7.90
2019-04-01T06:18:31.249Z,8.30
2019-04-01T06:21:01.494Z,8.70
2019-04-01T06:23:31.678Z,9.30
2019-04-01T06:26:01.894Z,9.50
2019-04-01T06:28:32.590Z,9.40
2019-04-01T06:31:03.058Z,10.00
2019-04-01T06:33:33.650Z,10.20
2019-04-01T06:36:03.850Z,10.50
2019-04-01T06:38:34.082Z,10.30
2019-04-01T06:41:04.321Z,10.30
2019-04-01T06:43:34.546Z,11.30
2019-04-01T06:46:04.768Z,12.70
2019-04-01T06:48:35.069Z,13.00
2019-04-01T06:51:06.258Z,13.70
2019-04-01T06:53:36.663Z,13.80
2019-04-01T06:56:06.875Z,13.40
2019-04-01T06:58:37.171Z,12.70
2019-04-01T07:01:07.374Z,12.80
2019-04-01T07:03:37.735Z,12.30
2019-04-01T07:06:08.300Z,12.20
2019-04-01T07:08:38.306Z,11.50
2019-04-01T07:11:08.503Z,12.40
2019-04-01T07:13:40.227Z,13.30
2019-04-01T07:16:15.799Z,14.10
2019-04-01T07:18:43.097Z,14.10
2019-04-01T07:21:13.278Z,14.10
2019-04-01T07:23:43.535Z,13.20
2019-04-01T07:26:14.039Z,13.40
2019-04-01T07:28:44.383Z,12.60
2019-04-01T07:31:14.574Z,12.90
2019-04-01T07:33:47.117Z,13.60
2019-04-01T07:36:37.047Z,14.00
2019-04-01T07:39:10.922Z,14.30
2019-04-01T07:41:41.305Z,14.10
2019-04-01T07:44:12.341Z,13.30
2019-04-01T07:46:44.074Z,13.60
2019-04-01T07:49:14.527Z,12.90
2019-04-01T07:51:44.934Z,12.00
2019-04-01T07:54:18.454Z,11.60
2019-04-01T07:56:49.661Z,10.80
2019-04-01T07:59:23.827Z,10.90
2019-04-01T08:01:54.631Z,10.80
2019-04-01T08:04:44.795Z,11.00
2019-04-01T08:07:15.281Z,11.20
2019-04-01T08:09:46.202Z,11.10
2019-04-01T08:12:16.490Z,11.10
2019-04-01T08:14:46.887Z,11.10
2019-04-01T08:17:18.706Z,11.40
2019-04-01T08:19:49.111Z,11.60
2019-04-01T08:22:19.929Z,11.90
2019-04-01T08:24:50.267Z,12.10
2019-04-01T08:27:20.529Z,12.30
2019-04-01T08:29:50.915Z,12.20
2019-04-01T08:32:42.255Z,12.80
2019-04-01T08:35:12.608Z,13.50
2019-04-01T08:37:43.313Z,14.10
2019-04-01T08:40:14.014Z,14.90
2019-04-01T08:42:44.507Z,15.20
2019-04-01T08:45:15.697Z,15.80
2019-04-01T08:47:50.576Z,16.10
2019-04-01T08:50:35.968Z,16.00
2019-04-01T09:08:30.187Z,15.60
2019-04-01T09:11:00.742Z,16.10
2019-04-01T09:13:31.173Z,16.00
2019-04-01T09:16:01.383Z,16.10
2019-04-01T09:18:31.641Z,16.20
2019-04-01T09:21:01.869Z,16.60
2019-04-01T09:23:32.066Z,16.70
2019-04-01T09:26:02.275Z,16.90
2019-04-01T09:28:32.487Z,16.60
2019-04-01T09:31:02.686Z,16.40
2019-04-01T09:33:32.960Z,16.60
2019-04-01T09:36:03.164Z,17.20
2019-04-01T09:38:33.491Z,17.30
2019-04-01T09:41:04.055Z,17.20
2019-04-01T09:43:34.225Z,17.50
2019-04-01T09:46:04.445Z,17.50
2019-04-01T09:48:34.613Z,17.10
2019-04-01T09:51:04.902Z,17.00
2019-04-01T09:53:35.272Z,17.20
2019-04-01T09:56:05.611Z,17.70
2019-04-01T09:58:35.804Z,18.10
2019-04-01T10:01:06.093Z,17.90
2019-04-01T10:03:37.550Z,18.30
2019-04-01T10:06:10.407Z,18.40
2019-04-01T10:08:42.442Z,18.00
2019-04-01T10:11:12.813Z,17.60
2019-04-01T10:13:43.299Z,17.20
2019-04-01T10:16:13.498Z,17.40
2019-04-01T10:18:43.680Z,17.50
2019-04-01T10:21:13.879Z,17.70
2019-04-01T10:23:44.139Z,18.10
2019-04-01T10:26:14.391Z,17.80
2019-04-01T10:28:44.586Z,17.90
2019-04-01T10:31:14.787Z,17.70
2019-04-01T10:33:45.151Z,17.40
2019-04-01T10:36:15.353Z,16.70
2019-04-01T10:38:46.817Z,16.60
2019-04-01T10:41:18.551Z,16.80
2019-04-01T10:43:48.747Z,17.30
2019-04-01T10:46:19.372Z,17.70
2019-04-01T10:48:49.601Z,18.00
2019-04-01T10:51:20.113Z,17.70
2019-04-01T10:53:50.424Z,17.60
2019-04-01T10:56:20.720Z,17.10
2019-04-01T10:58:51.016Z,17.10
2019-04-01T11:01:21.369Z,17.50
2019-04-01T11:03:52.059Z,18.60
2019-04-01T11:06:22.258Z,19.00
2019-04-01T11:08:52.751Z,19.00
2019-04-01T11:11:23.330Z,19.10
2019-04-01T11:13:54.075Z,19.10
2019-04-01T11:16:25.933Z,19.40
2019-04-01T11:18:58.105Z,19.50
2019-04-01T11:21:28.025Z,19.40
2019-04-01T11:23:58.273Z,19.10
2019-04-01T11:26:28.466Z,18.60
2019-04-01T11:28:58.811Z,18.70
2019-04-01T11:31:29.068Z,19.50
2019-04-01T11:33:59.318Z,19.30
2019-04-01T11:36:29.607Z,19.40
2019-04-01T11:39:00.365Z,19.20
2019-04-01T11:41:31.694Z,18.80
2019-04-01T11:44:01.978Z,19.10
2019-04-01T11:46:32.242Z,19.00
2019-04-01T11:49:02.963Z,19.10
2019-04-01T11:51:38.667Z,19.10
2019-04-01T11:54:08.196Z,18.90
2019-04-01T11:56:37.661Z,19.00
2019-04-01T11:59:08.521Z,18.80
2019-04-01T12:01:39.461Z,18.90
2019-04-01T12:04:09.710Z,19.60
2019-04-01T12:06:39.907Z,19.10
2019-04-01T12:09:10.539Z,19.10
2019-04-01T12:11:40.886Z,19.80
2019-04-01T12:14:11.059Z,20.20
2019-04-01T12:16:41.270Z,20.10
2019-04-01T12:19:11.484Z,19.50
2019-04-01T12:21:42.152Z,19.80
2019-04-01T12:24:12.553Z,19.70
2019-04-01T12:26:44.750Z,20.00
2019-04-01T12:29:15.089Z,20.10
2019-04-01T12:31:49.509Z,19.70
2019-04-01T12:34:19.954Z,20.00
2019-04-01T12:36:50.314Z,19.60
2019-04-01T12:39:20.702Z,19.40
2019-04-01T12:41:50.921Z,20.30
2019-04-01T12:44:21.502Z,20.20
2019-04-01T12:46:52.031Z,20.20
2019-04-01T12:49:22.701Z,20.20
2019-04-01T12:51:52.932Z,20.10
2019-04-01T12:54:23.758Z,19.90
2019-04-01T12:56:54.090Z,19.20
2019-04-01T12:59:24.390Z,19.00
2019-04-01T13:01:55.572Z,19.50
2019-04-01T13:04:25.758Z,19.70
2019-04-01T13:06:56.026Z,19.60
2019-04-01T13:09:26.634Z,19.90
2019-04-01T13:12:01.470Z,20.20
2019-04-01T13:14:33.542Z,19.90
2019-04-01T13:17:12.848Z,20.00
2019-04-01T13:19:44.844Z,19.70
2019-04-01T13:22:16.939Z,20.00
2019-04-01T13:24:48.542Z,19.40
2019-04-01T13:27:20.305Z,19.60
2019-04-01T13:29:50.708Z,19.10
2019-04-01T13:32:22.509Z,19.40
2019-04-01T13:34:53.743Z,19.50
2019-04-01T13:37:26.907Z,19.40
2019-04-01T13:39:57.998Z,19.30
2019-04-01T13:42:30.011Z,19.10
2019-04-01T13:45:02.670Z,19.00
2019-04-01T13:47:41.268Z,18.90
2019-04-01T13:50:16.205Z,19.10
2019-04-01T13:52:54.973Z,19.10
2019-04-01T13:55:26.575Z,19.20
2019-04-01T13:57:59.166Z,19.00
2019-04-01T14:00:31.118Z,19.00
2019-04-01T14:03:03.269Z,19.50
2019-04-01T14:05:49.242Z,19.80
2019-04-01T14:08:22.395Z,20.00
2019-04-01T14:10:54.534Z,19.50
2019-04-01T14:13:25.301Z,19.60
2019-04-01T14:15:57.172Z,19.10
2019-04-01T14:18:28.546Z,18.40
2019-04-01T14:21:16.233Z,18.80
2019-04-01T14:23:38.610Z,18.30
2019-04-01T14:26:08.830Z,18.50
2019-04-01T14:28:39.127Z,18.50
2019-04-01T14:31:09.347Z,18.60
2019-04-01T14:33:39.959Z,18.50
2019-04-01T14:36:11.014Z,18.40
2019-04-01T14:38:42.162Z,18.10
2019-04-01T14:41:12.940Z,17.70
2019-04-01T14:43:44.115Z,17.70
2019-04-01T14:46:14.311Z,17.60
2019-04-01T14:48:44.999Z,17.20
2019-04-01T14:51:15.746Z,16.90
2019-04-01T14:53:47.613Z,16.60
2019-04-01T14:56:17.798Z,16.50
2019-04-01T14:58:48.680Z,16.50
2019-04-01T15:01:18.901Z,16.50
2019-04-01T15:03:49.269Z,16.40
2019-04-01T15:06:19.486Z,16.40
2019-04-01T15:08:51.107Z,16.40
2019-04-01T15:11:21.810Z,16.30
2019-04-01T15:13:52.786Z,16.30
2019-04-01T15:16:23.098Z,16.20
2019-04-01T15:18:54.526Z,16.00
2019-04-01T15:21:46.971Z,16.30
2019-04-01T15:24:15.467Z,16.30
2019-04-01T15:26:45.647Z,16.20
2019-04-01T15:29:16.539Z,16.10
2019-04-01T15:31:47.959Z,16.20
2019-04-01T15:34:19.843Z,16.10
2019-04-01T15:36:50.298Z,16.00
2019-04-01T15:39:21.005Z,16.20
2019-04-01T15:41:52.990Z,16.10
2019-04-01T15:44:23.911Z,16.00
2019-04-01T15:46:54.456Z,16.10
2019-04-01T15:49:24.841Z,16.10
2019-04-01T15:51:55.035Z,16.00
2019-04-01T15:54:25.868Z,15.80
2019-04-01T15:56:57.442Z,15.70
2019-04-01T15:59:28.844Z,15.80
2019-04-01T16:01:59.415Z,16.00
2019-04-01T16:04:31.625Z,16.10
2019-04-01T16:07:02.519Z,16.10
2019-04-01T16:09:33.672Z,16.00
2019-04-01T16:12:04.544Z,16.00
2019-04-01T16:14:36.824Z,16.10
2019-04-01T16:17:08.112Z,15.80
2019-04-01T16:19:39.114Z,15.80
2019-04-01T16:22:11.338Z,15.70
2019-04-01T16:24:45.568Z,15.60
2019-04-01T16:27:17.397Z,15.80
2019-04-01T16:29:53.239Z,15.80
2019-04-01T16:32:25.752Z,16.00
2019-04-01T16:35:01.150Z,15.90
2019-04-01T16:37:31.997Z,15.90
2019-04-01T16:40:06.137Z,16.00
2019-04-01T16:42:37.394Z,16.00
2019-04-01T16:45:14.998Z,16.00
2019-04-01T16:47:48.689Z,15.70
2019-04-01T16:50:23.571Z,15.90
2019-04-01T16:52:54.511Z,16.10
2019-04-01T16:55:30.467Z,15.60
2019-04-01T16:58:03.070Z,15.70
2019-04-01T17:00:43.898Z,15.50
2019-04-01T17:03:15.090Z,15.50
2019-04-01T17:05:51.069Z,15.50
2019-04-01T17:08:23.201Z,15.50
2019-04-01T17:10:57.104Z,15.50
2019-04-01T17:13:27.492Z,15.20
2019-04-01T17:16:01.497Z,15.20
2019-04-01T17:18:31.753Z,15.30
2019-04-01T17:21:02.692Z,15.50
2019-04-01T17:23:53.638Z,15.40
2019-04-01T17:26:24.867Z,15.40
2019-04-01T17:28:55.046Z,15.60
2019-04-01T17:31:25.814Z,15.70
2019-04-01T17:33:56.510Z,15.70
2019-04-01T17:36:27.005Z,16.00
2019-04-01T17:38:57.507Z,15.90
2019-04-01T17:41:28.914Z,16.00
2019-04-01T17:43:59.439Z,15.90
2019-04-01T17:46:30.144Z,16.00
2019-04-01T17:49:01.301Z,15.90
2019-04-01T17:51:32.714Z,15.90
2019-04-01T17:54:03.163Z,15.70
2019-04-01T17:56:33.793Z,15.50
2019-04-01T17:59:04.202Z,15.40
2019-04-01T18:01:35.311Z,15.40
2019-04-01T18:04:05.870Z,15.20
2019-04-01T18:06:42.822Z,15.00
2019-04-01T18:09:53.321Z,14.90
2019-04-01T18:12:24.662Z,14.80
2019-04-01T18:14:55.302Z,14.80
2019-04-01T18:17:26.123Z,14.70
2019-04-01T18:19:56.606Z,14.80
2019-04-01T18:22:28.141Z,14.80
2019-04-01T18:24:59.610Z,14.80
2019-04-01T18:27:29.865Z,14.70
2019-04-01T18:30:01.007Z,14.50
2019-04-01T18:32:32.441Z,14.30
2019-04-01T18:35:04.166Z,14.10
2019-04-01T18:37:35.046Z,14.00
2019-04-01T18:40:05.818Z,13.80
2019-04-01T18:42:36.823Z,13.70
2019-04-01T18:45:07.935Z,13.60
2019-04-01T18:47:40.185Z,13.60
2019-04-01T18:50:13.348Z,13.40
2019-04-01T18:52:45.800Z,13.30
2019-04-01T18:55:16.227Z,13.30
2019-04-01T18:57:47.261Z,13.20
2019-04-01T19:00:18.842Z,13.10
2019-04-01T19:02:50.069Z,13.00
2019-04-01T19:05:20.704Z,12.90
2019-04-01T19:07:52.092Z,12.80
2019-04-01T19:10:23.570Z,12.70
2019-04-01T19:13:05.988Z,12.70
2019-04-01T19:15:37.464Z,12.50
2019-04-01T19:18:11.598Z,12.40
2019-04-01T19:20:55.577Z,12.40
2019-04-01T19:23:23.729Z,12.30
2019-04-01T19:25:54.283Z,12.20
2019-04-01T19:28:30.623Z,12.10
2019-04-01T19:31:02.798Z,12.00
2019-04-01T19:33:39.162Z,12.00
2019-04-01T19:36:10.007Z,11.90
2019-04-01T19:38:42.336Z,11.80
2019-04-01T19:41:16.119Z,11.70
2019-04-01T19:43:55.129Z,11.70
2019-04-01T19:46:25.952Z,11.70
2019-04-01T19:48:58.534Z,11.60
2019-04-01T19:51:31.614Z,11.50
2019-04-01T19:54:06.037Z,11.50
2019-04-01T19:56:38.053Z,11.40
2019-04-01T19:59:16.080Z,11.40
2019-04-01T20:01:50.775Z,11.30
2019-04-01T20:04:25.963Z,11.30
2019-04-01T20:06:59.368Z,11.30
2019-04-01T20:09:31.939Z,11.20
2019-04-01T20:12:02.782Z,11.20
2019-04-01T20:14:33.356Z,11.10
2019-04-01T20:17:04.004Z,11.10
2019-04-01T20:19:34.978Z,11.00
2019-04-01T20:22:05.394Z,11.00
2019-04-01T20:24:36.129Z,11.00
2019-04-01T20:27:06.677Z,10.90
2019-04-01T20:29:36.899Z,10.90
2019-04-01T20:32:17.075Z,10.90
2019-04-01T20:34:40.087Z,10.80
2019-04-01T20:37:10.304Z,10.70
2019-04-01T20:39:41.535Z,10.60
2019-04-01T20:42:12.008Z,10.60
2019-04-01T20:44:42.528Z,10.60
2019-04-01T20:47:13.060Z,10.50
2019-04-01T20:49:43.446Z,10.40
2019-04-01T20:52:13.637Z,10.40
2019-04-01T20:54:44.230Z,10.30
2019-04-01T20:57:16.346Z,10.30
2019-04-01T20:59:48.025Z,10.20
2019-04-01T21:02:18.371Z,10.20
2019-04-01T21:04:49.468Z,10.20
2019-04-01T21:07:19.699Z,10.10
2019-04-01T21:09:50.495Z,10.10
2019-04-01T21:12:21.119Z,10.10
2019-04-01T21:14:51.348Z,10.10
2019-04-01T21:17:21.873Z,10.10
2019-04-01T21:19:52.198Z,10.00
2019-04-01T21:22:22.391Z,10.00
2019-04-01T21:24:52.684Z,10.00
2019-04-01T21:27:23.205Z,10.00
2019-04-01T21:29:56.078Z,10.00
2019-04-01T21:32:26.363Z,9.90
2019-04-01T21:34:56.561Z,9.90
2019-04-01T21:37:27.029Z,9.80
2019-04-01T21:39:59.067Z,9.80
2019-04-01T21:42:30.248Z,9.80
2019-04-01T21:45:00.813Z,9.80
2019-04-01T21:47:30.999Z,9.70
2019-04-01T21:50:02.052Z,9.70
2019-04-01T21:52:33.158Z,9.60
2019-04-01T21:55:08.020Z,9.60
2019-04-01T21:57:37.775Z,9.60
2019-04-01T22:00:11.414Z,9.50
2019-04-01T22:02:44.081Z,9.60
2019-04-01T22:05:15.146Z,9.50
2019-04-01T22:07:45.327Z,9.50
2019-04-01T22:10:17.174Z,9.50
2019-04-01T22:12:47.662Z,9.50
2019-04-01T22:15:21.150Z,9.40
2019-04-01T22:17:53.387Z,9.30
2019-04-01T22:20:23.742Z,9.30
2019-04-01T22:22:57.188Z,9.20
2019-04-01T22:25:30.063Z,9.20
2019-04-01T22:28:00.807Z,9.20
2019-04-01T22:30:33.480Z,9.10
2019-04-01T22:33:03.906Z,9.10
2019-04-01T22:35:38.822Z,9.10
2019-04-01T22:38:09.842Z,9.10
2019-04-01T22:40:40.819Z,9.10
2019-04-01T22:43:11.406Z,9.10
2019-04-01T22:45:43.750Z,9.00
2019-04-01T22:48:14.678Z,9.00
2019-04-01T22:50:47.930Z,9.00
2019-04-01T22:53:18.125Z,8.90
2019-04-01T22:55:49.141Z,8.90
2019-04-01T22:58:19.921Z,8.90
2019-04-01T23:00:51.982Z,8.90
2019-04-01T23:03:23.161Z,8.90
2019-04-01T23:05:55.642Z,8.80
2019-04-01T23:08:26.450Z,8.80
2019-04-01T23:10:57.004Z,8.80
2019-04-01T23:13:28.203Z,8.80
2019-04-01T23:15:59.042Z,8.80
2019-04-01T23:18:29.387Z,8.80
2019-04-01T23:21:01.258Z,8.90
2019-04-01T23:23:32.586Z,8.90
2019-04-01T23:26:03.228Z,8.90
2019-04-01T23:28:33.400Z,9.00
2019-04-01T23:31:03.594Z,9.10
2019-04-01T23:33:33.766Z,9.10
2019-04-01T23:36:03.969Z,9.20
2019-04-01T23:38:34.135Z,9.10
2019-04-01T23:41:04.419Z,9.20
2019-04-01T23:43:34.586Z,9.30
2019-04-01T23:46:04.793Z,9.30
2019-04-01T23:48:35.110Z,9.30
2019-04-01T23:51:07.029Z,9.40
2019-04-01T23:53:37.175Z,9.60
2019-04-01T23:56:07.612Z,9.60
2019-04-01T23:58:37.783Z,9.60
